Time;durP1;ratioP1;P1;durP2;ratioP2;P2;SDS_P1;SDS_P2;PMS_P1;PMS_P2;Temp;Humidity;BMP_temperature;BMP_pressure;BME280_temperature;BME280_humidity;BME280_pressure;Samples;Min_cycle;Max_cycle;Signal;HPM_P1;HPM_P2
2023/06/23 00:00:28;;;;;;;29.83;16.25;;;;;;;13.88;100.00;101734.50;4911126;29;20400;-86
2023/06/23 00:02:54;;;;;;;35.15;16.38;;;;;;;13.76;100.00;101724.75;4912961;29;20037;-87
2023/06/23 00:05:19;;;;;;;30.83;16.02;;;;;;;13.84;100.00;101738.81;4913782;29;20028;-86
2023/06/23 00:07:45;;;;;;;36.80;15.40;;;;;;;13.83;100.00;101743.38;4913193;29;20696;-87
2023/06/23 00:10:11;;;;;;;35.60;15.57;;;;;;;13.82;100.00;101751.72;4911948;29;20036;-87
2023/06/23 00:12:41;;;;;;;33.40;16.37;;;;;;;13.75;100.00;101744.66;4912145;29;20037;-87
2023/06/23 00:15:08;;;;;;;37.17;16.30;;;;;;;13.77;100.00;101758.69;4914109;29;20024;-86
2023/06/23 00:17:34;;;;;;;31.67;15.35;;;;;;;13.71;100.00;101746.25;4913595;29;20047;-87
2023/06/23 00:19:59;;;;;;;32.63;15.70;;;;;;;13.72;100.00;101766.72;4911941;29;20111;-87
2023/06/23 00:22:27;;;;;;;34.40;15.63;;;;;;;13.68;100.00;101771.00;4913803;29;20191;-86
2023/06/23 00:24:53;;;;;;;36.03;16.63;;;;;;;13.56;100.00;101768.47;4912195;29;20028;-87
2023/06/23 00:27:19;;;;;;;39.05;16.20;;;;;;;13.62;100.00;101780.09;4911017;29;20050;-87
2023/06/23 00:29:45;;;;;;;35.10;16.67;;;;;;;13.52;100.00;101763.84;4912186;29;20469;-86
2023/06/23 00:32:10;;;;;;;38.93;16.97;;;;;;;13.48;100.00;101775.13;4914249;29;20773;-86
2023/06/23 00:34:35;;;;;;;37.90;16.97;;;;;;;13.50;100.00;101766.78;4916154;29;20396;-86
2023/06/23 00:37:01;;;;;;;37.35;16.60;;;;;;;13.46;100.00;101768.38;4916209;29;20083;-87
2023/06/23 00:39:26;;;;;;;38.87;17.43;;;;;;;13.54;100.00;101783.25;4915336;29;20059;-87
2023/06/23 00:41:52;;;;;;;45.43;17.67;;;;;;;13.42;100.00;101776.16;4916290;29;20055;-87
2023/06/23 00:44:17;;;;;;;42.63;17.27;;;;;;;13.43;100.00;101780.47;4916335;29;20036;-86
2023/06/23 00:46:43;;;;;;;44.23;17.90;;;;;;;13.38;100.00;101785.75;4912837;29;20039;-87
2023/06/23 00:49:10;;;;;;;41.42;18.52;;;;;;;13.45;100.00;101791.78;4908998;29;20024;-86
2023/06/23 00:51:36;;;;;;;46.08;18.83;;;;;;;13.41;100.00;101790.66;4916963;29;20028;-86
2023/06/23 00:54:03;;;;;;;54.15;20.38;;;;;;;13.43;100.00;101793.09;4916383;29;20039;-87
2023/06/23 00:56:30;;;;;;;48.53;20.03;;;;;;;13.37;100.00;101805.66;4896967;29;20033;-86
2023/06/23 00:58:56;;;;;;;43.60;19.17;;;;;;;13.31;100.00;101806.69;4914507;29;20862;-86
2023/06/23 01:01:21;;;;;;;45.85;19.88;;;;;;;13.38;100.00;101823.44;4922749;29;20119;-86
2023/06/23 01:03:48;;;;;;;48.47;19.73;;;;;;;13.32;100.00;101824.47;4915951;29;20107;-87
2023/06/23 01:06:20;;;;;;;53.15;21.88;;;;;;;13.30;100.00;101819.31;4915509;29;20125;-87
2023/06/23 01:08:57;;;;;;;56.85;20.85;;;;;;;13.30;100.00;101824.69;4897352;29;20028;-86
2023/06/23 01:11:34;;;;;;;62.13;23.10;;;;;;;13.34;100.00;101835.78;4910866;29;20096;-87
2023/06/23 01:14:10;;;;;;;57.65;22.60;;;;;;;13.34;100.00;101833.09;4909028;29;20032;-87
2023/06/23 01:16:44;;;;;;;58.03;21.27;;;;;;;13.20;100.00;101823.78;4915757;29;20024;-86
2023/06/23 01:19:27;;;;;;;58.33;23.48;;;;;;;13.26;100.00;101820.09;4914445;29;20043;-87
2023/06/23 01:22:30;;;;;;;57.22;23.00;;;;;;;13.27;100.00;101822.50;4914397;29;20032;-87
2023/06/23 01:25:04;;;;;;;63.50;22.80;;;;;;;13.18;100.00;101815.97;4905635;29;20078;-87
2023/06/23 01:28:17;;;;;;;60.37;23.37;;;;;;;13.24;100.00;101844.53;4915702;29;20343;-88
2023/06/23 01:30:46;;;;;;;65.75;25.75;;;;;;;13.27;100.00;101846.72;4868390;29;20561;-87
2023/06/23 01:33:17;;;;;;;68.43;25.48;;;;;;;13.31;100.00;101844.38;4897380;29;20021;-87
2023/06/23 01:35:47;;;;;;;69.75;27.05;;;;;;;13.22;100.00;101835.09;4905132;29;20488;-87
2023/06/23 01:38:27;;;;;;;68.55;27.13;;;;;;;13.16;100.00;101826.97;4915228;29;20052;-87
2023/06/23 01:40:55;;;;;;;73.35;28.48;;;;;;;13.26;100.00;101830.84;4912353;29;20040;-87
2023/06/23 01:43:29;;;;;;;73.00;28.25;;;;;;;13.22;100.00;101838.63;4914435;29;20080;-87
2023/06/23 01:46:14;;;;;;;72.68;28.45;;;;;;;13.22;100.00;101851.25;4913991;29;20036;-86
2023/06/23 01:48:43;;;;;;;74.15;29.48;;;;;;;13.21;100.00;101846.94;4899573;29;20055;-86
2023/06/23 01:51:10;;;;;;;83.13;28.50;;;;;;;13.16;100.00;101864.63;4915387;29;20032;-87
2023/06/23 01:53:38;;;;;;;72.33;28.80;;;;;;;13.17;100.00;101868.16;4914828;29;20300;-87
2023/06/23 01:56:05;;;;;;;79.50;31.40;;;;;;;13.17;100.00;101860.88;4914374;29;20492;-86
2023/06/23 01:58:33;;;;;;;84.18;32.45;;;;;;;13.18;100.00;101862.50;4915423;29;20028;-87
2023/06/23 02:01:00;;;;;;;84.13;34.00;;;;;;;13.16;100.00;101856.56;4918429;29;20036;-87
2023/06/23 02:03:28;;;;;;;88.55;33.17;;;;;;;13.10;100.00;101854.88;4918262;29;20724;-87
2023/06/23 02:05:56;;;;;;;82.25;32.92;;;;;;;13.17;100.00;101866.25;4914162;29;20036;-87
2023/06/23 02:08:23;;;;;;;87.95;34.28;;;;;;;13.09;100.00;101866.72;4913161;29;20020;-86
2023/06/23 02:10:51;;;;;;;95.15;34.67;;;;;;;13.13;100.00;101885.84;4915237;29;20079;-87
2023/06/23 02:13:20;;;;;;;87.18;33.67;;;;;;;13.07;100.00;101887.66;4915174;29;20080;-86
2023/06/23 02:15:48;;;;;;;81.13;31.60;;;;;;;12.98;100.00;101875.69;4914027;29;20036;-89
2023/06/23 02:18:15;;;;;;;80.20;32.77;;;;;;;13.07;100.00;101884.16;4914999;29;20296;-88
2023/06/23 02:20:44;;;;;;;90.28;35.15;;;;;;;13.05;100.00;101881.72;4912066;29;20047;-88
2023/06/23 02:23:10;;;;;;;93.53;35.50;;;;;;;12.99;100.00;101885.38;4914445;29;20043;-89
2023/06/23 02:25:36;;;;;;;80.65;32.53;;;;;;;12.99;100.00;101896.97;4914282;29;20190;-89
2023/06/23 02:28:02;;;;;;;81.32;33.63;;;;;;;12.96;100.00;101913.63;4911421;29;20115;-88
2023/06/23 02:30:29;;;;;;;85.90;34.22;;;;;;;12.87;100.00;101913.22;4920425;29;20044;-88
2023/06/23 02:32:56;;;;;;;87.07;35.65;;;;;;;12.94;100.00;101920.31;4925926;29;20034;-88
2023/06/23 02:35:22;;;;;;;87.40;34.30;;;;;;;12.83;100.00;101920.16;4912923;29;20020;-88
2023/06/23 02:37:54;;;;;;;86.13;34.47;;;;;;;12.84;100.00;101926.34;4908325;29;20040;-89
2023/06/23 02:40:23;;;;;;;92.53;36.53;;;;;;;12.76;100.00;101919.50;4914159;29;20066;-88
2023/06/23 02:43:00;;;;;;;93.18;37.60;;;;;;;12.77;100.00;101929.22;4901676;29;20345;-88
2023/06/23 02:45:30;;;;;;;87.82;34.90;;;;;;;12.80;100.00;101934.06;4914548;29;20040;-89
2023/06/23 02:47:57;;;;;;;98.13;38.15;;;;;;;12.77;100.00;101926.53;4908653;29;20089;-90
2023/06/23 02:50:28;;;;;;;95.93;37.50;;;;;;;12.76;100.00;101937.50;4911287;29;20027;-88
2023/06/23 02:52:59;;;;;;;98.85;36.47;;;;;;;12.73;100.00;101941.50;4906240;29;20039;-89
2023/06/23 02:55:27;;;;;;;100.45;38.28;;;;;;;12.66;100.00;101947.06;4913858;29;20027;-89
2023/06/23 02:57:56;;;;;;;97.50;38.60;;;;;;;12.69;100.00;101941.16;4910182;29;20036;-88
2023/06/23 03:00:24;;;;;;;96.13;37.83;;;;;;;12.63;100.00;101935.97;4913780;29;20391;-89
2023/06/23 03:02:55;;;;;;;95.57;37.72;;;;;;;12.67;100.00;101939.78;4911421;29;20028;-89
2023/06/23 03:05:23;;;;;;;105.43;40.20;;;;;;;12.61;100.00;101948.81;4896901;29;20175;-89
2023/06/23 03:07:52;;;;;;;102.07;38.30;;;;;;;12.60;100.00;101947.22;4902992;29;20164;-88
2023/06/23 03:10:19;;;;;;;103.55;40.33;;;;;;;12.64;100.00;101956.41;4931789;29;20036;-89
2023/06/23 03:12:48;;;;;;;128.75;43.33;;;;;;;12.67;100.00;101947.88;4935138;29;20008;-88
2023/06/23 03:15:14;;;;;;;106.13;39.53;;;;;;;12.62;100.00;101950.47;4929576;29;20384;-88
2023/06/23 03:17:41;;;;;;;115.13;43.92;;;;;;;12.69;100.00;101964.56;4925033;29;20011;-89
2023/06/23 03:20:25;;;;;;;129.35;44.83;;;;;;;12.69;100.00;101962.69;4935288;29;20044;-90
2023/06/23 03:23:13;;;;;;;123.33;44.23;;;;;;;12.66;100.00;101959.69;4934455;29;20517;-90
2023/06/23 03:25:41;;;;;;;120.90;42.80;;;;;;;12.61;100.00;101960.41;4925832;29;20660;-89
2023/06/23 03:28:08;;;;;;;117.45;41.33;;;;;;;12.65;100.00;101966.13;4933467;29;20030;-89
2023/06/23 03:30:39;;;;;;;123.68;44.90;;;;;;;12.59;100.00;101959.84;4920148;29;21446;-89
2023/06/23 03:33:23;;;;;;;125.28;44.92;;;;;;;12.58;100.00;101955.53;4915545;29;20028;-94
2023/06/23 03:35:52;;;;;;;130.40;43.78;;;;;;;12.60;100.00;101963.38;4919344;29;20127;-93
2023/06/23 03:38:22;;;;;;;146.45;48.03;;;;;;;12.67;100.00;101969.38;4929175;29;20020;-93
2023/06/23 03:40:55;;;;;;;148.63;45.45;;;;;;;12.67;100.00;101974.75;4930043;29;20108;-92
2023/06/23 03:43:52;;;;;;;142.23;46.97;;;;;;;12.68;100.00;101974.53;4936561;29;20091;-93
2023/06/23 03:46:23;;;;;;;145.35;45.88;;;;;;;12.72;100.00;101974.84;4922129;29;20044;-93
2023/06/23 03:48:52;;;;;;;138.87;45.90;;;;;;;12.69;100.00;101967.25;4930655;29;20028;-93
2023/06/23 03:51:20;;;;;;;145.40;47.53;;;;;;;12.74;100.00;101970.03;4937757;29;20268;-93
2023/06/23 03:53:48;;;;;;;154.38;48.70;;;;;;;12.72;100.00;101961.41;4938202;29;20016;-92
2023/06/23 03:56:15;;;;;;;151.10;49.55;;;;;;;12.76;100.00;101962.53;4933586;29;20020;-93
2023/06/23 03:58:42;;;;;;;152.95;48.70;;;;;;;12.79;100.00;101974.69;4937211;29;20041;-92
2023/06/23 04:01:08;;;;;;;163.05;50.45;;;;;;;12.75;100.00;101976.22;4939559;29;20027;-93
2023/06/23 04:03:37;;;;;;;149.55;48.45;;;;;;;12.83;100.00;101976.63;4937269;29;20068;-92
2023/06/23 04:06:05;;;;;;;158.80;48.50;;;;;;;12.85;100.00;101993.34;4935427;29;20036;-92
2023/06/23 04:08:33;;;;;;;167.30;49.80;;;;;;;12.94;100.00;102003.72;5146136;23;20852;-91
2023/06/23 04:11:00;;;;;;;164.63;50.00;;;;;;;12.95;100.00;101997.28;4903320;29;20036;-91
2023/06/23 04:13:31;;;;;;;167.15;51.45;;;;;;;13.06;100.00;102009.81;4900070;29;20401;-90
2023/06/23 04:15:59;;;;;;;175.93;52.63;;;;;;;13.09;100.00;102005.81;4899291;29;20068;-90
2023/06/23 04:18:27;;;;;;;182.00;53.72;;;;;;;13.09;100.00;101993.19;4911568;29;20040;-91
2023/06/23 04:20:55;;;;;;;170.43;50.35;;;;;;;13.13;100.00;101998.88;4899500;29;20036;-90
2023/06/23 04:23:22;;;;;;;177.23;51.70;;;;;;;13.18;100.00;102002.44;4907705;29;20028;-91
2023/06/23 04:25:50;;;;;;;184.10;54.80;;;;;;;13.48;100.00;102004.00;4913641;29;20416;-90
2023/06/23 04:28:18;;;;;;;175.70;54.30;;;;;;;13.64;100.00;102009.56;4911900;29;20043;-90
2023/06/23 04:30:45;;;;;;;203.60;57.60;;;;;;;13.63;100.00;102008.75;4899862;29;20560;-91
2023/06/23 04:33:10;;;;;;;195.30;56.10;;;;;;;13.64;100.00;102017.66;4897814;29;20284;-91
2023/06/23 04:35:36;;;;;;;182.45;55.58;;;;;;;13.65;100.00;102018.47;4904480;29;20028;-90
2023/06/23 04:46:24;;;;;;;206.63;57.45;;;;;;;13.83;100.00;102023.53;5501689;23;20075;-94
2023/06/23 04:49:10;;;;;;;215.48;59.00;;;;;;;14.09;100.00;102029.25;4915385;29;20024;-94
2023/06/23 04:51:48;;;;;;;253.30;65.47;;;;;;;14.92;100.00;102055.19;4893088;29;20056;-95
2023/06/23 04:54:40;;;;;;;259.43;71.00;;;;;;;15.37;100.00;102028.78;4905790;29;20307;-92
2023/06/23 04:57:16;;;;;;;288.58;75.43;;;;;;;16.09;100.00;102036.41;4913180;29;20044;-95
2023/06/23 04:59:48;;;;;;;270.83;79.28;;;;;;;16.34;100.00;102042.97;4915753;29;20032;-91
2023/06/23 05:02:16;;;;;;;246.35;76.40;;;;;;;16.77;100.00;102045.47;4921865;29;20029;-93
2023/06/23 05:04:43;;;;;;;231.98;75.60;;;;;;;17.02;100.00;102058.22;4914766;29;20100;-91
2023/06/23 05:07:13;;;;;;;200.40;73.70;;;;;;;17.06;100.00;102062.00;4914648;29;20056;-93
2023/06/23 05:09:42;;;;;;;185.63;71.13;;;;;;;17.44;100.00;102075.22;4919086;29;20024;-94
2023/06/23 05:12:10;;;;;;;175.35;69.43;;;;;;;17.58;100.00;102074.66;4918897;29;20032;-95
2023/06/23 05:14:38;;;;;;;169.55;68.00;;;;;;;17.75;100.00;102080.56;4922851;29;20028;-95
2023/06/23 05:17:08;;;;;;;156.80;66.83;;;;;;;17.96;100.00;102077.78;4906991;29;20034;-91
2023/06/23 05:19:37;;;;;;;121.23;60.67;;;;;;;17.96;100.00;102073.16;4913184;29;20307;-96
2023/06/23 05:22:15;;;;;;;119.72;56.45;;;;;;;18.43;100.00;102070.25;4906324;29;20029;-94
2023/06/23 05:24:52;;;;;;;102.55;51.60;;;;;;;18.63;100.00;102063.88;4909631;29;20029;-95
2023/06/23 05:27:24;;;;;;;97.32;49.15;;;;;;;18.95;100.00;102076.16;4920736;29;20017;-96
2023/06/23 05:29:52;;;;;;;93.85;48.33;;;;;;;19.19;100.00;102073.47;4916595;29;20028;-94
2023/06/23 05:32:21;;;;;;;80.57;43.15;;;;;;;19.39;100.00;102068.94;4920371;29;20060;-96
2023/06/23 05:34:49;;;;;;;62.10;37.58;;;;;;;19.42;100.00;102076.53;4921229;29;20028;-95
2023/06/23 05:37:18;;;;;;;58.80;35.72;;;;;;;19.55;100.00;102085.09;4921561;29;20028;-96
2023/06/23 05:39:48;;;;;;;53.33;31.73;;;;;;;19.53;100.00;102082.66;4924350;29;20024;-96
2023/06/23 05:42:13;;;;;;;50.50;30.73;;;;;;;19.50;100.00;102083.25;4921264;29;20084;-95
2023/06/23 05:44:39;;;;;;;46.20;31.03;;;;;;;19.50;100.00;102083.25;4920413;29;20273;-95
2023/06/23 05:47:10;;;;;;;45.77;29.17;;;;;;;19.66;100.00;102084.69;4921725;29;20040;-96
2023/06/23 05:49:42;;;;;;;48.63;29.23;;;;;;;19.64;100.00;102086.88;4917792;29;20702;-96
2023/06/23 05:52:13;;;;;;;51.08;30.58;;;;;;;19.80;100.00;102092.16;4910990;29;20084;-96
2023/06/23 05:54:42;;;;;;;42.22;27.80;;;;;;;19.81;100.00;102105.47;4910699;29;20036;-95
2023/06/23 05:57:27;;;;;;;43.80;27.92;;;;;;;19.65;100.00;102101.31;4909047;29;20029;-94
2023/06/23 06:00:24;;;;;;;46.85;29.30;;;;;;;19.75;100.00;102101.19;4890888;29;20055;-93
2023/06/23 06:02:50;;;;;;;47.13;29.73;;;;;;;19.88;100.00;102096.19;4891940;29;20063;-96
2023/06/23 06:05:18;;;;;;;44.35;27.45;;;;;;;19.59;100.00;102108.72;4932691;29;20028;-91
2023/06/23 06:07:45;;;;;;;49.92;28.58;;;;;;;19.26;100.00;102111.22;4929085;29;20099;-90
2023/06/23 06:10:14;;;;;;;43.58;27.33;;;;;;;19.16;100.00;102103.97;4908604;29;20032;-92
2023/06/23 06:12:40;;;;;;;47.40;28.97;;;;;;;19.15;100.00;102113.19;4929106;29;20391;-94
2023/06/23 06:15:07;;;;;;;215.03;191.97;;;;;;;19.05;100.00;102116.00;4926743;29;20296;-89
2023/06/23 06:17:38;;;;;;;56.03;38.75;;;;;;;18.72;100.00;102086.59;5092599;23;20056;-92
2023/06/23 06:23:21;;;;;;;48.67;29.88;;;;;;;18.68;100.00;102098.31;4888707;29;20044;-94
2023/06/23 06:26:01;;;;;;;46.40;29.95;;;;;;;18.69;100.00;102108.91;4899710;29;20385;-89
2023/06/23 06:28:28;;;;;;;47.05;30.70;;;;;;;18.51;100.00;102118.50;4896391;29;20017;-94
2023/06/23 06:31:03;;;;;;;48.40;30.52;;;;;;;18.34;100.00;102115.34;4878931;29;20109;-93
2023/06/23 06:36:24;;;;;;;48.45;29.98;;;;;;;18.40;100.00;102133.22;4863644;29;20040;-91
2023/06/23 06:38:57;;;;;;;50.03;31.07;;;;;;;18.46;100.00;102103.06;4886055;29;20028;-95
2023/06/23 06:41:26;;;;;;;49.40;29.17;;;;;;;18.62;100.00;102124.69;4884149;29;20368;-95
2023/06/23 06:43:53;;;;;;;47.00;30.48;;;;;;;18.68;100.00;102136.31;4884806;29;20039;-95
2023/06/23 06:46:19;;;;;;;50.47;31.10;;;;;;;18.71;100.00;102124.91;4887640;29;20025;-94
2023/06/23 06:49:09;;;;;;;50.95;31.80;;;;;;;19.11;100.00;102161.03;4867817;29;20025;-93
2023/06/23 06:55:29;;;;;;;48.42;30.60;;;;;;;19.32;100.00;102163.59;4822292;29;20137;-93
2023/06/23 07:01:19;;;;;;;46.53;29.45;;;;;;;19.69;100.00;102170.31;4836348;29;20049;-95
2023/06/23 07:04:33;;;;;;;40.13;27.40;;;;;;;19.96;100.00;102174.41;4836938;29;20041;-95
2023/06/23 07:07:05;;;;;;;38.47;25.93;;;;;;;19.67;100.00;102153.50;4742577;30;20036;-94
2023/06/23 07:13:11;;;;;;;36.78;25.77;;;;;;;19.57;100.00;102156.28;4775160;30;20521;-95
2023/06/23 07:15:45;;;;;;;37.17;25.90;;;;;;;19.63;100.00;102172.25;4761462;30;20272;-95
2023/06/23 07:18:11;;;;;;;37.05;25.40;;;;;;;19.79;100.00;102183.81;4814771;29;20046;-95
2023/06/23 07:25:57;;;;;;;37.28;23.38;;;;;;;19.70;100.00;102204.56;5211477;23;20070;-96
2023/06/23 07:32:09;;;;;;;31.27;21.05;;;;;;;19.49;100.00;102157.72;4894021;29;20075;-96
2023/06/23 07:46:20;;;;;;;30.53;19.60;;;;;;;20.34;100.00;102195.50;4879725;29;20041;-92
2023/06/23 07:49:22;;;;;;;24.17;18.60;;;;;;;20.25;100.00;102193.41;4875191;29;20309;-94
2023/06/23 07:51:53;;;;;;;26.80;20.08;;;;;;;20.29;100.00;102185.44;4869924;29;20052;-87
2023/06/23 07:54:31;;;;;;;33.23;22.00;;;;;;;20.57;100.00;102202.78;4892544;29;20036;-88
2023/06/23 07:56:59;;;;;;;25.80;17.90;;;;;;;20.49;100.00;102214.34;4918661;29;20272;-87
2023/06/23 07:59:27;;;;;;;25.95;18.40;;;;;;;20.48;100.00;102195.56;4917522;29;20024;-88
2023/06/23 08:01:53;;;;;;;25.77;20.00;;;;;;;20.84;100.00;102211.44;4917785;29;20629;-87
2023/06/23 08:04:41;;;;;;;26.70;19.60;;;;;;;21.03;100.00;102211.47;4901172;29;20056;-88
2023/06/23 08:07:18;;;;;;;26.42;16.70;;;;;;;21.05;100.00;102197.53;5049568;23;20048;-88
2023/06/23 08:09:54;;;;;;;;;;;;;;;;;;;;;
2023/06/23 08:53:38;;;;;;;16.60;12.03;;;;;;;22.70;100.00;102208.16;4903867;29;20327;-87
2023/06/23 08:56:10;;;;;;;17.55;13.27;;;;;;;22.91;100.00;102238.56;5252749;23;20071;-86
2023/06/23 08:58:58;;;;;;;16.13;11.90;;;;;;;22.97;100.00;102256.44;4912608;29;22615;-86
2023/06/23 09:01:33;;;;;;;16.33;12.00;;;;;;;22.95;99.95;102250.47;4897752;29;20075;-86
2023/06/23 09:04:19;;;;;;;16.97;13.07;;;;;;;23.04;98.61;102263.44;4914615;29;20488;-87
2023/06/23 09:06:45;;;;;;;16.13;12.87;;;;;;;23.00;96.54;102241.38;4880363;29;20304;-87
2023/06/23 09:09:11;;;;;;;13.23;10.73;;;;;;;23.19;89.67;102259.53;4894577;29;20385;-86
2023/06/23 09:11:42;;;;;;;11.07;8.13;;;;;;;23.20;88.08;102247.47;4895178;29;20103;-86
2023/06/23 09:14:18;;;;;;;11.82;8.23;;;;;;;23.40;85.94;102260.66;4897738;29;20588;-85
2023/06/23 09:17:02;;;;;;;11.50;8.45;;;;;;;23.39;90.76;102234.44;4896369;29;20088;-85
2023/06/23 09:19:42;;;;;;;12.05;9.70;;;;;;;23.37;87.08;102255.81;4897602;29;20040;-86
2023/06/23 09:22:26;;;;;;;13.30;10.40;;;;;;;23.54;84.86;102279.75;4898094;29;20393;-87
2023/06/23 09:24:51;;;;;;;13.10;9.50;;;;;;;23.54;90.03;102251.59;4908017;23;20280;-86
2023/06/23 09:27:17;;;;;;;13.05;9.73;;;;;;;23.98;90.29;102269.09;4932402;29;20036;-86
2023/06/23 09:29:58;;;;;;;11.50;9.40;;;;;;;23.96;85.49;102271.28;4934963;29;20047;-86
2023/06/23 09:32:30;;;;;;;15.47;10.53;;;;;;;24.02;85.51;102272.81;4933366;29;20314;-86
2023/06/23 09:34:55;;;;;;;12.40;9.65;;;;;;;23.99;78.99;102275.38;4923367;29;20666;-87
2023/06/23 09:37:21;;;;;;;12.60;8.90;;;;;;;24.15;78.27;102283.97;4915883;29;20137;-87
2023/06/23 09:39:48;;;;;;;10.60;8.53;;;;;;;24.45;79.62;102289.72;4915485;29;20063;-87
2023/06/23 09:42:14;;;;;;;11.82;9.68;;;;;;;24.70;78.95;102287.34;4916754;29;20107;-87
2023/06/23 09:44:41;;;;;;;15.40;8.73;;;;;;;25.07;81.66;102290.66;4915818;29;20599;-86
2023/06/23 09:47:07;;;;;;;11.23;9.88;;;;;;;25.29;77.77;102297.13;4916253;29;20117;-87
2023/06/23 09:49:47;;;;;;;14.35;8.93;;;;;;;25.20;74.40;102294.38;4908500;29;20052;-87
2023/06/23 09:52:21;;;;;;;10.30;7.10;;;;;;;25.28;76.17;102300.97;4917505;29;20250;-88
2023/06/23 09:54:47;;;;;;;9.70;7.60;;;;;;;25.36;68.58;102292.75;4916991;29;20039;-89
2023/06/23 09:57:14;;;;;;;10.87;8.47;;;;;;;25.47;72.84;102297.94;4918096;29;20395;-88
2023/06/23 09:59:41;;;;;;;8.70;6.53;;;;;;;25.66;68.02;102301.13;4917955;29;20580;-88
2023/06/23 10:02:08;;;;;;;8.98;6.72;;;;;;;25.48;64.82;102294.88;4916866;29;20095;-88
2023/06/23 10:08:18;;;;;;;12.27;8.03;;;;;;;25.62;74.88;102255.44;4895431;29;20324;-87
2023/06/23 10:11:10;;;;;;;10.85;8.15;;;;;;;26.13;72.76;102286.63;4858711;29;20732;-87
2023/06/23 10:13:41;;;;;;;9.63;8.05;;;;;;;26.31;70.06;102289.28;4885222;29;20040;-87
2023/06/23 10:16:35;;;;;;;12.45;8.55;;;;;;;26.22;72.04;102288.53;4895997;29;20032;-88
2023/06/23 10:19:07;;;;;;;10.98;7.50;;;;;;;26.20;64.09;102274.34;4876627;29;20045;-88
2023/06/23 10:22:43;;;;;;;;;;;;;;;;;;;;;
2023/06/23 10:26:22;;;;;;;;;;;;;;;;;;;;;
2023/06/23 10:29:17;;;;;;;7.07;6.38;;;;;;;26.81;67.67;102286.94;4878186;29;20041;-89
2023/06/23 10:32:04;;;;;;;7.53;6.18;;;;;;;26.99;61.20;102260.09;4891158;29;20047;-89
2023/06/23 10:34:30;;;;;;;7.63;6.63;;;;;;;26.93;56.60;102278.75;4879426;29;20390;-90
2023/06/23 10:37:32;;;;;;;;;;;;;;;;;;;;;
2023/06/23 10:40:22;;;;;;;10.27;6.38;;;;;;;26.68;63.64;102256.56;4882584;29;20353;-89
2023/06/23 10:43:04;;;;;;;7.53;5.93;;;;;;;27.23;59.02;102280.63;4883910;29;20034;-90
2023/06/23 10:45:57;;;;;;;6.90;5.75;;;;;;;27.60;59.08;102298.06;4883145;29;20025;-89
2023/06/23 10:48:30;;;;;;;9.03;6.90;;;;;;;27.77;55.48;102307.28;4882993;29;20033;-89
2023/06/23 10:51:04;;;;;;;8.47;6.60;;;;;;;27.94;57.49;102298.81;4872039;29;20380;-89
2023/06/23 10:53:32;;;;;;;6.47;5.85;;;;;;;27.87;52.72;102293.09;4879001;29;20040;-90
2023/06/23 10:56:39;;;;;;;10.55;7.00;;;;;;;27.77;57.94;102296.28;4875777;29;20397;-89
2023/06/23 10:59:32;;;;;;;6.80;6.20;;;;;;;27.49;58.38;102299.66;4877359;29;20033;-89
2023/06/23 11:02:18;;;;;;;9.85;5.90;;;;;;;27.50;55.33;102287.50;4871473;29;20041;-89
2023/06/23 11:05:24;;;;;;;7.20;6.00;;;;;;;26.88;56.07;102267.94;4876720;29;20553;-89
2023/06/23 11:08:03;;;;;;;6.80;5.47;;;;;;;27.16;55.34;102292.97;4820307;29;20046;-89
2023/06/23 11:36:05;;;;;;;6.13;4.43;;;;;;;27.57;49.70;102318.00;4861999;29;20170;-88
2023/06/23 11:39:01;;;;;;;5.90;4.88;;;;;;;27.70;53.10;102320.81;4871738;29;20503;-88
2023/06/23 12:42:13;;;;;;;;;;;;;;;;;;;;;
2023/06/23 12:53:01;;;;;;;5.32;3.67;;;;;;;30.34;43.96;102295.38;5069893;23;20059;-86
2023/06/23 12:59:20;;;;;;;4.63;4.23;;;;;;;30.85;42.19;102274.38;4908069;29;20661;-85
2023/06/23 13:03:00;;;;;;;5.03;4.43;;;;;;;31.30;41.11;102294.28;4905604;29;20453;-85
2023/06/23 13:09:25;;;;;;;6.63;5.05;;;;;;;30.91;40.25;102298.63;4750370;30;20055;-85
2023/06/23 13:12:08;;;;;;;6.07;4.15;;;;;;;30.79;41.28;102296.78;4746018;30;20056;-85
2023/06/23 13:14:42;;;;;;;4.97;4.47;;;;;;;30.62;40.26;102283.38;4819469;29;20034;-85
2023/06/23 13:17:08;;;;;;;4.97;4.47;;;;;;;31.01;39.97;102290.94;4824761;29;20458;-85
2023/06/23 13:20:17;;;;;;;9.07;3.77;;;;;;;31.10;40.69;102269.34;4807882;29;20042;-86
2023/06/23 13:22:43;;;;;;;4.68;4.25;;;;;;;30.79;37.52;102274.66;4819689;29;20093;-85
2023/06/23 13:25:35;;;;;;;5.97;4.47;;;;;;;30.48;40.22;102254.25;4863505;29;20052;-85
2023/06/23 13:31:32;;;;;;;7.22;5.10;;;;;;;29.71;40.45;102264.66;4819140;29;20045;-85
2023/06/23 13:33:58;;;;;;;5.28;4.75;;;;;;;29.82;39.39;102280.69;4838200;29;20051;-86
2023/06/23 13:46:23;;;;;;;;;;;;;;;;;;;;;
2023/06/23 13:49:30;;;;;;;7.80;3.97;;;;;;;30.36;39.82;102282.00;4823793;29;20044;-84
2023/06/23 14:00:46;;;;;;;6.35;3.60;;;;;;;31.04;37.39;102277.16;4894839;29;20048;-85
2023/06/23 14:03:58;;;;;;;7.00;4.20;;;;;;;31.53;38.56;102270.19;4891813;29;20033;-86
2023/06/23 14:10:36;;;;;;;4.73;4.23;;;;;;;31.93;37.71;102278.38;4778191;29;20514;-84
2023/06/23 14:13:54;;;;;;;7.37;4.57;;;;;;;31.36;36.69;102265.13;4800778;29;20308;-84
2023/06/23 14:16:55;;;;;;;4.57;4.10;;;;;;;30.98;38.50;102262.00;4870719;29;20048;-84
2023/06/23 14:19:29;;;;;;;7.68;5.18;;;;;;;29.98;37.56;102259.41;4782826;29;20043;-84
2023/06/23 14:22:05;;;;;;;7.97;4.85;;;;;;;29.42;39.97;102258.38;4781048;29;20046;-84
2023/06/23 14:24:39;;;;;;;5.93;5.18;;;;;;;29.23;39.59;102252.69;4782863;29;20044;-85
2023/06/23 14:30:31;;;;;;;5.45;4.93;;;;;;;29.99;38.51;102255.50;4730368;30;20094;-84
2023/06/23 14:35:39;;;;;;;7.10;4.90;;;;;;;31.01;39.70;102274.31;4888545;29;20319;-86
2023/06/23 14:38:05;;;;;;;5.82;4.85;;;;;;;30.88;37.56;102246.78;4894684;29;20482;-87
2023/06/23 14:40:48;;;;;;;5.15;4.70;;;;;;;30.94;37.90;102274.97;4894539;29;20056;-86
2023/06/23 14:43:14;;;;;;;5.33;4.40;;;;;;;31.06;36.75;102251.88;4885866;29;20780;-87
2023/06/23 14:46:01;;;;;;;4.67;4.23;;;;;;;30.71;36.74;102250.00;4892858;29;20301;-86
2023/06/23 14:48:26;;;;;;;5.85;4.22;;;;;;;30.27;37.58;102237.16;4895212;29;20036;-86
2023/06/23 14:50:51;;;;;;;5.23;4.73;;;;;;;30.29;38.36;102251.44;4895024;29;20029;-86
2023/06/23 14:53:23;;;;;;;5.90;5.30;;;;;;;30.02;37.74;102249.25;4893101;23;20883;-86
2023/06/23 14:56:16;;;;;;;6.10;5.00;;;;;;;30.49;38.90;102247.53;4880021;29;20036;-86
2023/06/23 14:58:44;;;;;;;6.55;5.05;;;;;;;31.07;37.75;102250.69;4892219;29;20495;-86
2023/06/23 15:01:15;;;;;;;6.15;5.47;;;;;;;31.35;36.68;102277.38;4895341;29;20149;-86
2023/06/23 15:03:54;;;;;;;7.85;5.47;;;;;;;31.26;35.64;102250.72;4886320;29;20438;-86
2023/06/23 15:06:20;;;;;;;5.35;4.78;;;;;;;31.64;34.80;102269.56;4875690;29;20529;-87
2023/06/23 15:08:51;;;;;;;5.27;4.53;;;;;;;31.31;35.70;102234.97;4873553;29;20037;-86
2023/06/23 15:11:29;;;;;;;4.72;4.22;;;;;;;31.33;37.09;102269.41;4874004;29;20032;-86
2023/06/23 15:13:54;;;;;;;4.63;4.23;;;;;;;31.49;35.17;102269.31;4874163;29;20029;-87
2023/06/23 15:16:21;;;;;;;4.63;4.10;;;;;;;31.95;35.75;102276.03;4875134;29;20297;-87
2023/06/23 15:18:47;;;;;;;5.40;5.00;;;;;;;32.03;34.18;102269.44;4877175;29;20116;-86
2023/06/23 15:21:12;;;;;;;5.23;4.80;;;;;;;31.95;35.10;102273.28;4873281;29;20044;-86
2023/06/23 15:23:39;;;;;;;6.10;4.67;;;;;;;31.67;34.66;102268.81;4851858;29;20471;-86
2023/06/23 15:26:04;;;;;;;4.97;4.30;;;;;;;31.79;34.34;102270.63;4857641;29;20025;-86
2023/06/23 15:28:31;;;;;;;6.07;4.87;;;;;;;31.96;33.91;102270.13;4858254;29;20542;-85